createdAt,value
2022-08-22T00:00:19.482Z,17.00
2022-08-22T00:02:52.695Z,21.60
2022-08-22T00:02:55.613Z,17.20
2022-08-22T00:03:00.023Z,19.60
2022-08-22T00:03:00.574Z,18.10
2022-08-22T00:03:01.248Z,18.70
2022-08-22T00:03:04.819Z,19.40
2022-08-22T00:03:06.994Z,17.10
2022-08-22T00:06:01.344Z,16.90
2022-08-22T00:08:39.485Z,16.90
2022-08-22T00:11:15.972Z,16.90
2022-08-22T00:14:01.476Z,16.90
2022-08-22T00:16:39.595Z,16.80
2022-08-22T00:19:18.076Z,16.70
2022-08-22T00:21:57.628Z,16.70
2022-08-22T00:24:31.832Z,16.60
2022-08-22T00:27:08.590Z,16.60
2022-08-22T00:29:43.422Z,16.60
2022-08-22T00:32:17.142Z,16.50
2022-08-22T00:34:54.472Z,16.50
2022-08-22T00:37:28.916Z,16.40
2022-08-22T00:40:09.578Z,16.40
2022-08-22T00:43:04.443Z,16.40
2022-08-22T00:46:03.261Z,16.40
2022-08-22T00:49:02.212Z,16.40
2022-08-22T00:51:51.765Z,16.40
2022-08-22T00:54:30.428Z,16.40
2022-08-22T00:57:31.063Z,16.40
2022-08-22T01:00:16.077Z,16.30
2022-08-22T01:03:19.981Z,16.30
2022-08-22T01:06:04.535Z,16.20
2022-08-22T01:08:43.129Z,16.20
2022-08-22T01:11:27.883Z,16.10
2022-08-22T01:14:13.184Z,16.10
2022-08-22T01:17:08.418Z,16.00
2022-08-22T01:20:11.003Z,16.00
2022-08-22T01:23:25.238Z,15.90
2022-08-22T01:26:31.244Z,15.90
2022-08-22T01:29:28.658Z,15.80
2022-08-22T01:32:42.702Z,15.90
2022-08-22T01:35:31.999Z,15.90
2022-08-22T01:38:34.793Z,15.90
2022-08-22T01:41:26.810Z,15.80
2022-08-22T01:44:21.523Z,15.80
2022-08-22T01:46:59.416Z,15.70
2022-08-22T01:49:38.050Z,15.80
2022-08-22T01:52:12.650Z,15.80
2022-08-22T01:54:51.889Z,15.80
2022-08-22T01:57:21.171Z,15.80
2022-08-22T01:59:53.394Z,15.80
2022-08-22T02:02:36.821Z,15.80
2022-08-22T02:05:12.239Z,15.70
2022-08-22T02:07:49.776Z,15.70
2022-08-22T02:10:24.576Z,15.60
2022-08-22T02:13:04.924Z,15.50
2022-08-22T02:15:47.961Z,15.50
2022-08-22T02:18:21.843Z,15.40
2022-08-22T02:21:01.651Z,15.40
2022-08-22T02:23:37.963Z,15.40
2022-08-22T02:26:10.517Z,15.40
2022-08-22T02:28:56.413Z,15.40
2022-08-22T02:31:38.276Z,15.30
2022-08-22T02:34:22.931Z,15.30
2022-08-22T02:36:58.253Z,15.20
2022-08-22T02:39:36.930Z,15.20
2022-08-22T02:42:18.273Z,15.20
2022-08-22T02:45:01.651Z,15.20
2022-08-22T02:47:37.134Z,15.20
2022-08-22T02:50:18.782Z,15.20
2022-08-22T02:52:58.394Z,15.20
2022-08-22T02:55:47.211Z,15.20
2022-08-22T02:58:24.304Z,15.20
2022-08-22T03:01:17.723Z,15.20
2022-08-22T03:03:48.351Z,15.20
2022-08-22T03:06:40.542Z,15.20
2022-08-22T03:09:23.111Z,15.10
2022-08-22T03:12:05.582Z,15.10
2022-08-22T03:14:44.401Z,15.20
2022-08-22T03:17:20.432Z,15.10
2022-08-22T03:20:01.339Z,15.10
2022-08-22T03:22:37.827Z,15.10
2022-08-22T03:25:15.563Z,15.00
2022-08-22T03:27:52.424Z,15.00
2022-08-22T03:30:24.445Z,15.00
2022-08-22T03:32:56.357Z,14.90
2022-08-22T03:35:40.145Z,14.80
2022-08-22T03:38:19.297Z,14.80
2022-08-22T03:41:09.725Z,14.80
2022-08-22T03:44:03.147Z,14.70
2022-08-22T03:46:46.444Z,14.70
2022-08-22T03:49:59.823Z,14.70
2022-08-22T03:53:18.970Z,14.70
2022-08-22T03:56:14.423Z,14.70
2022-08-22T03:59:16.334Z,14.70
2022-08-22T04:02:35.837Z,14.70
2022-08-22T04:05:40.754Z,14.70
2022-08-22T04:08:53.379Z,14.60
2022-08-22T04:12:00.872Z,14.60
2022-08-22T04:14:50.907Z,14.60
2022-08-22T04:17:55.554Z,14.60
2022-08-22T04:20:58.823Z,14.60
2022-08-22T04:23:54.690Z,14.60
2022-08-22T04:26:33.277Z,14.60
2022-08-22T04:29:08.999Z,14.60
2022-08-22T04:31:53.494Z,14.60
2022-08-22T04:34:27.659Z,14.50
2022-08-22T04:37:04.810Z,14.50
2022-08-22T04:39:39.815Z,14.50
2022-08-22T04:42:32.326Z,14.50
2022-08-22T04:45:07.367Z,14.50
2022-08-22T04:47:41.471Z,14.50
2022-08-22T04:50:23.558Z,14.50
2022-08-22T04:53:05.983Z,14.50
2022-08-22T04:55:55.412Z,14.40
2022-08-22T04:58:37.538Z,14.40
2022-08-22T05:01:16.833Z,14.40
2022-08-22T05:03:53.383Z,14.40
2022-08-22T05:06:28.601Z,14.40
2022-08-22T05:09:04.185Z,14.40
2022-08-22T05:11:35.769Z,14.40
2022-08-22T05:14:09.959Z,14.40
2022-08-22T05:16:43.009Z,14.40
2022-08-22T05:19:18.251Z,14.40
2022-08-22T05:21:51.625Z,14.40
2022-08-22T05:24:28.102Z,14.40
2022-08-22T05:27:00.694Z,14.40
2022-08-22T05:29:31.680Z,14.40
2022-08-22T05:32:05.610Z,14.50
2022-08-22T05:34:40.501Z,14.50
2022-08-22T05:37:15.324Z,14.50
2022-08-22T05:39:48.614Z,14.50
2022-08-22T05:42:23.213Z,14.60
2022-08-22T05:44:52.192Z,14.60
2022-08-22T05:47:24.033Z,14.60
2022-08-22T05:50:01.838Z,14.60
2022-08-22T05:52:43.363Z,14.70
2022-08-22T05:55:23.695Z,14.70
2022-08-22T05:58:11.834Z,14.70
2022-08-22T06:00:44.380Z,14.70
2022-08-22T06:03:19.606Z,14.80
2022-08-22T06:05:54.298Z,14.90
2022-08-22T06:08:25.948Z,14.90
2022-08-22T06:10:59.215Z,15.00
2022-08-22T06:13:34.986Z,15.10
2022-08-22T06:16:10.652Z,15.20
2022-08-22T06:18:41.955Z,15.20
2022-08-22T06:21:19.260Z,15.30
2022-08-22T06:23:51.936Z,15.40
2022-08-22T06:26:21.974Z,15.50
2022-08-22T06:28:55.058Z,15.50
2022-08-22T06:31:30.587Z,15.60
2022-08-22T06:34:05.274Z,15.60
2022-08-22T06:36:38.590Z,15.70
2022-08-22T06:39:16.678Z,15.80
2022-08-22T06:41:50.458Z,15.90
2022-08-22T06:44:23.461Z,16.10
2022-08-22T06:46:56.449Z,16.20
2022-08-22T06:49:27.042Z,16.30
2022-08-22T06:52:01.014Z,16.30
2022-08-22T06:54:36.193Z,16.50
2022-08-22T06:57:07.434Z,16.60
2022-08-22T06:59:39.404Z,16.70
2022-08-22T07:02:20.796Z,16.80
2022-08-22T07:04:50.386Z,16.90
2022-08-22T07:07:21.457Z,17.00
2022-08-22T07:09:55.541Z,17.30
2022-08-22T07:12:29.851Z,17.40
2022-08-22T07:15:02.892Z,17.60
2022-08-22T07:17:35.901Z,17.70
2022-08-22T07:20:23.953Z,17.80
2022-08-22T07:22:57.652Z,17.90
2022-08-22T07:25:27.090Z,17.90
2022-08-22T07:28:36.644Z,18.10
2022-08-22T07:31:16.875Z,18.30
2022-08-22T07:33:50.822Z,18.40
2022-08-22T07:36:31.416Z,18.50
2022-08-22T07:39:17.764Z,18.70
2022-08-22T07:42:10.718Z,19.00
2022-08-22T07:44:58.250Z,19.20
2022-08-22T07:47:34.213Z,19.50
2022-08-22T07:50:07.213Z,19.60
2022-08-22T07:52:41.902Z,19.70
2022-08-22T07:55:18.913Z,19.80
2022-08-22T07:57:53.833Z,19.90
2022-08-22T08:00:25.012Z,20.00
2022-08-22T08:02:58.203Z,20.00
2022-08-22T08:05:30.422Z,20.10
2022-08-22T08:08:01.036Z,20.20
2022-08-22T08:10:35.516Z,20.50
2022-08-22T08:13:12.646Z,20.60
2022-08-22T08:15:45.425Z,20.60
2022-08-22T08:18:19.464Z,20.70
2022-08-22T08:20:51.960Z,20.80
2022-08-22T08:23:23.809Z,20.80
2022-08-22T08:26:03.932Z,20.90
2022-08-22T08:28:34.787Z,21.00
2022-08-22T08:31:08.607Z,21.60
2022-08-22T08:33:41.278Z,21.80
2022-08-22T08:36:23.393Z,22.00
2022-08-22T08:38:58.582Z,22.30
2022-08-22T08:41:46.694Z,22.80
2022-08-22T08:44:34.165Z,22.90
2022-08-22T08:47:23.264Z,23.70
2022-08-22T08:50:11.725Z,23.70
2022-08-22T08:52:59.470Z,24.00
2022-08-22T08:55:43.658Z,24.40
2022-08-22T08:58:40.738Z,24.50
2022-08-22T09:01:34.574Z,24.80
2022-08-22T09:04:25.206Z,25.00
2022-08-22T09:07:25.946Z,24.90
2022-08-22T09:10:12.184Z,25.10
2022-08-22T09:13:19.676Z,25.20
2022-08-22T09:16:05.026Z,25.00
2022-08-22T09:19:28.212Z,24.70
2022-08-22T09:22:14.349Z,24.90
2022-08-22T09:25:12.614Z,24.80
2022-08-22T09:27:50.158Z,24.90
2022-08-22T09:30:27.551Z,24.80
2022-08-22T09:33:03.529Z,24.80
2022-08-22T09:35:41.129Z,25.20
2022-08-22T09:38:27.611Z,25.30
2022-08-22T09:41:06.293Z,25.60
2022-08-22T09:43:44.174Z,25.80
2022-08-22T09:46:29.465Z,26.00
2022-08-22T09:49:12.668Z,26.20
2022-08-22T09:51:46.337Z,26.30
2022-08-22T09:54:31.064Z,26.40
2022-08-22T09:57:09.489Z,26.30
2022-08-22T09:59:58.503Z,26.10
2022-08-22T10:02:34.520Z,25.80
2022-08-22T10:05:41.043Z,26.00
2022-08-22T10:08:26.594Z,26.00
2022-08-22T10:11:11.168Z,26.40
2022-08-22T10:13:57.332Z,27.10
2022-08-22T10:16:52.514Z,27.10
2022-08-22T10:19:28.536Z,27.30
2022-08-22T10:22:30.815Z,27.70
2022-08-22T10:25:09.303Z,27.80
2022-08-22T10:28:03.632Z,28.00
2022-08-22T10:30:39.654Z,27.70
2022-08-22T10:33:14.874Z,27.60
2022-08-22T10:35:59.997Z,27.40
2022-08-22T10:38:46.153Z,27.20
2022-08-22T10:41:28.157Z,27.10
2022-08-22T10:44:05.106Z,27.00
2022-08-22T10:46:39.529Z,27.20
2022-08-22T10:49:20.348Z,27.30
2022-08-22T10:51:59.972Z,27.50
2022-08-22T10:54:49.362Z,27.90
2022-08-22T10:57:37.393Z,27.90
2022-08-22T11:00:14.219Z,27.70
2022-08-22T11:02:53.607Z,28.30
2022-08-22T11:05:39.342Z,28.50
2022-08-22T11:08:20.463Z,28.50
2022-08-22T11:11:08.178Z,28.70
2022-08-22T11:13:43.308Z,28.90
2022-08-22T11:16:42.002Z,28.70
2022-08-22T11:19:44.916Z,28.70
2022-08-22T11:22:30.328Z,28.80
2022-08-22T11:25:35.827Z,28.70
2022-08-22T11:28:30.918Z,28.50
2022-08-22T11:31:07.742Z,28.80
2022-08-22T11:33:46.934Z,29.30
2022-08-22T11:36:31.082Z,29.60
2022-08-22T11:39:18.020Z,29.50
2022-08-22T11:41:56.208Z,29.60
2022-08-22T11:44:34.588Z,29.80
2022-08-22T11:47:24.805Z,29.70
2022-08-22T11:50:01.413Z,29.60
2022-08-22T11:52:52.021Z,29.80
2022-08-22T11:55:32.558Z,29.80
2022-08-22T11:58:16.961Z,29.80
2022-08-22T12:00:55.279Z,29.90
2022-08-22T12:03:51.031Z,29.90
2022-08-22T12:06:42.604Z,29.40
2022-08-22T12:09:31.872Z,29.50
2022-08-22T12:12:20.941Z,29.60
2022-08-22T12:14:58.268Z,29.80
2022-08-22T12:18:01.612Z,29.80
2022-08-22T12:21:00.046Z,29.60
2022-08-22T12:24:20.828Z,29.80
2022-08-22T12:27:00.563Z,29.80
2022-08-22T12:29:44.893Z,29.60
2022-08-22T12:32:50.758Z,29.70
2022-08-22T12:35:41.145Z,29.90
2022-08-22T12:38:37.750Z,30.20
2022-08-22T12:41:40.031Z,29.80
2022-08-22T12:44:30.087Z,29.80
2022-08-22T12:47:14.339Z,29.60
2022-08-22T12:50:16.588Z,29.30
2022-08-22T12:53:05.181Z,29.10
2022-08-22T12:55:56.088Z,29.00
2022-08-22T12:58:36.569Z,29.30
2022-08-22T13:01:09.219Z,29.40
2022-08-22T13:03:44.720Z,29.60
2022-08-22T13:06:51.017Z,29.70
2022-08-22T13:09:30.682Z,29.90
2022-08-22T13:12:05.598Z,30.10
2022-08-22T13:14:36.828Z,30.10
2022-08-22T13:17:24.034Z,29.90
2022-08-22T13:20:08.615Z,30.00
2022-08-22T13:22:45.620Z,30.10
2022-08-22T13:25:26.165Z,30.20
2022-08-22T13:27:59.297Z,29.90
2022-08-22T13:30:33.434Z,29.60
2022-08-22T13:33:10.111Z,29.80
2022-08-22T13:35:44.532Z,29.90
2022-08-22T13:38:25.597Z,30.00
2022-08-22T13:40:58.788Z,30.30
2022-08-22T13:43:33.846Z,30.20
2022-08-22T13:46:05.389Z,30.10
2022-08-22T13:48:49.891Z,29.80
2022-08-22T13:51:26.301Z,29.50
2022-08-22T13:54:03.307Z,29.00
2022-08-22T13:56:50.463Z,28.40
2022-08-22T13:59:49.711Z,28.10
2022-08-22T14:02:35.036Z,27.90
2022-08-22T14:05:09.921Z,27.90
2022-08-22T14:07:44.794Z,28.20
2022-08-22T14:10:21.335Z,28.40
2022-08-22T14:13:20.423Z,28.40
2022-08-22T14:15:49.445Z,28.70
2022-08-22T14:18:31.718Z,28.90
2022-08-22T14:21:33.449Z,28.90
2022-08-22T14:24:18.930Z,28.90
2022-08-22T14:26:54.555Z,28.80
2022-08-22T14:29:34.855Z,28.60
2022-08-22T14:32:14.725Z,28.70
2022-08-22T14:34:49.473Z,28.70
2022-08-22T14:37:23.068Z,28.90
2022-08-22T14:39:56.747Z,29.00
2022-08-22T14:42:29.659Z,29.10
2022-08-22T14:45:06.653Z,29.20
2022-08-22T14:48:14.445Z,29.00
2022-08-22T14:50:39.865Z,29.20
2022-08-22T14:53:13.687Z,29.30
2022-08-22T14:55:43.573Z,29.40
2022-08-22T14:58:26.468Z,29.20
2022-08-22T15:01:08.020Z,29.30
2022-08-22T15:03:40.931Z,29.30
2022-08-22T15:06:14.396Z,29.30
2022-08-22T15:08:51.309Z,29.20
2022-08-22T15:11:25.204Z,29.10
2022-08-22T15:14:01.424Z,29.00
2022-08-22T15:16:36.122Z,28.90
2022-08-22T15:19:22.722Z,28.80
2022-08-22T15:21:52.138Z,28.70
2022-08-22T15:24:22.564Z,28.60
2022-08-22T15:26:55.514Z,28.60
2022-08-22T15:29:28.026Z,28.50
2022-08-22T15:32:03.292Z,28.50
2022-08-22T15:34:37.887Z,28.40
2022-08-22T15:37:32.399Z,28.30
2022-08-22T15:40:11.664Z,28.40
2022-08-22T15:42:45.168Z,28.30
2022-08-22T15:45:33.653Z,28.30
2022-08-22T15:48:08.761Z,28.30
2022-08-22T15:50:41.871Z,28.20
2022-08-22T15:53:16.065Z,28.10
2022-08-22T15:56:19.565Z,28.00
2022-08-22T15:58:51.456Z,27.90
2022-08-22T16:01:23.149Z,27.80
2022-08-22T16:04:01.119Z,27.60
2022-08-22T16:06:46.646Z,27.50
2022-08-22T16:09:40.374Z,27.40
2022-08-22T16:12:13.626Z,27.30
2022-08-22T16:14:50.739Z,27.20
2022-08-22T16:17:42.941Z,27.20
2022-08-22T16:20:54.834Z,27.30
2022-08-22T16:23:24.993Z,27.30
2022-08-22T16:26:15.375Z,27.30
2022-08-22T16:28:58.218Z,27.20
2022-08-22T16:31:35.979Z,27.10
2022-08-22T16:34:39.388Z,27.10
2022-08-22T16:37:31.643Z,27.10
2022-08-22T16:40:19.514Z,27.00
2022-08-22T16:42:52.334Z,27.00
2022-08-22T16:45:33.887Z,26.80
2022-08-22T16:48:25.819Z,26.60
2022-08-22T16:51:18.454Z,26.50
2022-08-22T16:54:11.081Z,26.50
2022-08-22T16:57:05.585Z,26.60
2022-08-22T16:59:50.493Z,26.50
2022-08-22T17:02:43.269Z,26.40
2022-08-22T17:05:32.283Z,26.40
2022-08-22T17:08:17.427Z,26.30
2022-08-22T17:11:00.151Z,26.30
2022-08-22T17:13:47.897Z,26.20
2022-08-22T17:16:32.787Z,26.10
2022-08-22T17:19:22.284Z,25.90
2022-08-22T17:21:55.959Z,25.70
2022-08-22T17:24:34.467Z,25.60
2022-08-22T17:27:13.293Z,25.60
2022-08-22T17:30:01.046Z,25.50
2022-08-22T17:32:38.184Z,25.40
2022-08-22T17:35:18.002Z,25.30
2022-08-22T17:37:58.496Z,25.30
2022-08-22T17:40:37.693Z,25.20
2022-08-22T17:43:21.273Z,25.10
2022-08-22T17:46:16.538Z,25.10
2022-08-22T17:48:51.640Z,25.00
2022-08-22T17:51:28.799Z,24.80
2022-08-22T17:54:02.673Z,24.70
2022-08-22T17:56:40.826Z,24.50
2022-08-22T17:59:16.047Z,24.40
2022-08-22T18:01:54.555Z,24.40
2022-08-22T18:04:32.420Z,24.40
2022-08-22T18:07:24.283Z,24.30
2022-08-22T18:09:59.207Z,24.30
2022-08-22T18:12:34.462Z,24.20
2022-08-22T18:15:09.482Z,24.10
2022-08-22T18:17:44.351Z,24.00
2022-08-22T18:20:18.592Z,24.00
2022-08-22T18:22:51.278Z,23.90
2022-08-22T18:25:41.772Z,23.90
2022-08-22T18:28:15.535Z,23.80
2022-08-22T18:30:59.474Z,23.80
2022-08-22T18:33:35.368Z,23.80
2022-08-22T18:36:12.752Z,23.80
2022-08-22T18:38:50.612Z,23.60
2022-08-22T18:41:27.347Z,23.60
2022-08-22T18:43:57.469Z,23.50
2022-08-22T18:46:41.428Z,23.40
2022-08-22T18:49:29.909Z,23.40
2022-08-22T18:52:21.850Z,23.30
2022-08-22T18:55:13.182Z,23.20
2022-08-22T18:58:03.520Z,23.10
2022-08-22T19:00:49.099Z,23.00
2022-08-22T19:03:31.865Z,22.90
2022-08-22T19:06:28.348Z,22.80
2022-08-22T19:09:24.244Z,22.70
2022-08-22T19:12:02.908Z,22.60
2022-08-22T19:14:51.094Z,22.60
2022-08-22T19:17:43.960Z,22.50
2022-08-22T19:20:46.200Z,22.40
2022-08-22T19:23:47.444Z,22.40
2022-08-22T19:26:34.557Z,22.30
2022-08-22T19:29:10.655Z,22.20
2022-08-22T19:31:48.975Z,22.20
2022-08-22T19:34:36.206Z,22.10
2022-08-22T19:37:32.435Z,22.10
2022-08-22T19:40:07.291Z,21.90
2022-08-22T19:42:39.030Z,21.80
2022-08-22T19:45:19.581Z,21.70
2022-08-22T19:47:57.839Z,21.50
2022-08-22T19:50:31.617Z,21.30
2022-08-22T19:53:18.408Z,21.10
2022-08-22T19:56:18.249Z,21.00
2022-08-22T19:58:57.243Z,21.00
2022-08-22T20:01:46.760Z,21.00
2022-08-22T20:04:42.335Z,21.00
2022-08-22T20:07:23.695Z,21.00
2022-08-22T20:10:02.103Z,21.00
2022-08-22T20:12:39.625Z,21.00
2022-08-22T20:15:20.144Z,21.00
2022-08-22T20:20:57.782Z,21.00
2022-08-22T20:23:30.510Z,20.90
2022-08-22T20:26:07.843Z,20.90
2022-08-22T20:28:48.740Z,20.90
2022-08-22T20:31:23.106Z,20.80
2022-08-22T20:33:56.545Z,20.70
2022-08-22T20:36:27.661Z,20.70
2022-08-22T20:39:02.420Z,20.70
2022-08-22T20:41:35.537Z,20.70
2022-08-22T20:44:12.507Z,20.70
2022-08-22T20:46:55.690Z,20.60
2022-08-22T20:49:29.411Z,20.60
2022-08-22T20:52:00.875Z,20.50
2022-08-22T20:54:31.922Z,20.50
2022-08-22T20:57:02.672Z,20.40
2022-08-22T20:59:36.961Z,20.40
2022-08-22T21:02:14.600Z,20.30
2022-08-22T21:04:52.800Z,20.30
2022-08-22T21:07:24.527Z,20.30
2022-08-22T21:10:22.104Z,20.30
2022-08-22T21:13:10.726Z,20.30
2022-08-22T21:15:42.928Z,20.30
2022-08-22T21:18:13.643Z,20.20
2022-08-22T21:20:42.676Z,20.10
2022-08-22T21:23:15.560Z,20.00
2022-08-22T21:25:59.231Z,19.90
2022-08-22T21:28:31.189Z,19.80
2022-08-22T21:31:08.411Z,19.70
2022-08-22T21:33:41.525Z,19.60
2022-08-22T21:36:13.349Z,19.60
2022-08-22T21:38:49.087Z,19.50
2022-08-22T21:41:26.720Z,19.50
2022-08-22T21:43:55.991Z,19.40
2022-08-22T21:46:29.884Z,19.40
2022-08-22T21:49:03.080Z,19.30
2022-08-22T21:51:41.915Z,19.20
2022-08-22T21:54:41.164Z,19.10
2022-08-22T21:57:24.313Z,19.10
2022-08-22T21:59:59.785Z,19.00
2022-08-22T22:02:37.002Z,19.00
2022-08-22T22:05:09.310Z,18.90
2022-08-22T22:07:39.361Z,18.90
2022-08-22T22:10:10.863Z,18.90
2022-08-22T22:12:41.387Z,18.90
2022-08-22T22:15:13.269Z,18.80
2022-08-22T22:17:43.446Z,18.70
2022-08-22T22:20:15.222Z,18.70
2022-08-22T22:22:46.536Z,18.60
2022-08-22T22:25:41.225Z,18.60
2022-08-22T22:28:09.162Z,18.50
2022-08-22T22:30:38.019Z,18.40
2022-08-22T22:33:08.101Z,18.40
2022-08-22T22:35:38.915Z,18.30
2022-08-22T22:38:08.405Z,18.30
2022-08-22T22:40:37.513Z,18.20
2022-08-22T22:43:06.412Z,18.20
2022-08-22T22:45:35.114Z,18.10
2022-08-22T22:48:04.576Z,18.10
2022-08-22T22:50:38.009Z,18.10
2022-08-22T22:53:06.690Z,18.10
2022-08-22T22:55:41.676Z,18.00
2022-08-22T22:58:10.847Z,18.00
2022-08-22T23:00:39.580Z,17.90
2022-08-22T23:03:08.356Z,17.90
2022-08-22T23:05:38.368Z,18.00
2022-08-22T23:08:07.056Z,17.90
2022-08-22T23:10:35.680Z,17.90
2022-08-22T23:13:06.757Z,17.90
2022-08-22T23:15:35.460Z,17.80
2022-08-22T23:18:04.351Z,17.80
2022-08-22T23:20:33.029Z,17.80
2022-08-22T23:23:03.145Z,17.80
2022-08-22T23:25:31.890Z,17.70
2022-08-22T23:28:00.674Z,17.70
2022-08-22T23:30:30.298Z,17.70
2022-08-22T23:32:58.981Z,17.50
2022-08-22T23:35:27.653Z,17.50
2022-08-22T23:37:56.532Z,17.40
2022-08-22T23:40:26.664Z,17.40
2022-08-22T23:42:56.898Z,17.30
2022-08-22T23:45:26.605Z,17.30
2022-08-22T23:47:55.356Z,17.20
2022-08-22T23:50:24.012Z,17.20
2022-08-22T23:52:52.680Z,17.20
2022-08-22T23:55:21.398Z,17.20
2022-08-22T23:57:51.393Z,17.20
